Frenchglen, OR (97736)

9:14 PM PDT on September 23, 2014 (GMT -0700)
RAWS P HILL OR US | Change Station
CLOSE
Current Station
Personal Weather Station
Location: Frenchglen, OR
Elevation: 4859 ft
Nearby Weather Stations

Elev 4859 ft 42.82 °N, 118.94 °W | Updated 31 minutes ago

Clear
Clear
63 °F
Feels Like 63 °F
N
4
Wind Variable Wind from SSW
Gusts 11.0 mph

Today
High -- | Low -- °F
--% Chance of Precip.
Yesterday
High -- | Low -- °F
Precip. -- in
6:44 AM 6:51 PM
Waning Crescent, 0% visible
Pressure 29.84 in
Visibility 10.0 miles
Clouds Clear
Dew Point 25 °F
Humidity 23%
Rainfall 0.05 in
Snow Depth 0 in , 0 in , 0 in
UV 0 out of 12
Pollen 5.20 out of 12
Air Quality Not available.
Flu Activity Not available.
METAR KBNO 240353Z AUTO 12005KT 10SM CLR 17/01 A2997 RMK AO2 SLP105 T01670011

More Conditions Fewer Conditions

Pressure 29.84 in
Visibility 10.0 miles
Clouds Clear
Dew Point 25 °F
Humidity 23%
Rainfall 0.05 in
Snow Depth 0 in , 0 in , 0 in
UV 0 out of 12
Pollen 5.20 out of 12
Air Quality Not available.
Flu Activity Not available.
METAR KBNO 240353Z AUTO 12005KT 10SM CLR 17/01 A2997 RMK AO2 SLP105 T01670011

More Conditions Fewer Conditions

10-Day Weather Forecast

Almanac

Astronomy

Sep. 23, 2014 Rise Set
Actual Time 6:44 AM PDT 6:51 PM PDT
Civil Twilight 6:15 AM PDT 7:19 PM PDT
Nautical Twilight 5:42 AM PDT 7:52 PM PDT
Astronomical Twilight 5:09 AM PDT 8:25 PM PDT
Moon 6:12 AM PDT (9/23) 6:31 PM PDT (9/23)
Length of Visible Light 13h 03m
Length of Day
12h 06m
Tomorrow will be 2m 53s shorter.
Waning Crescent, 0% of the Moon is Illuminated
Sep 24
Waning Crescent
Sep 24
New
Oct 1
First Quarter
Oct 8
Full
Oct 15
Last Quarter

Today's Extremes

State Highs State Lows

Community

WunderPhotos

Upload Photos

1,755,890 photos uploaded!

WunderBlogs® & News

Nearby

Snow Depth

Station Depth Elevation
Mt. Howard 0 in 7910 ft
Billie Creek Divide 0 in 5300 ft
Strawberry 0 in 5760 ft
Madison Butte 0 in 5250 ft
Snow Mountain 0 in 6220 ft

Earthquake Activity

City Distance Mag. Time & Date
Lakeview, Oregon 76 miles 2.5 2:45 AM PDT
2014-09-23
Lakeview, Oregon 74 miles 3.0 7:28 PM PDT
2014-09-21
Minimum magnitude displayed is 2.5.

Coastal Water Temperatures

Place Temperature
No Stations Reporting

Nearby Weather Stations